Lifton, United Kingdom
Current Conditions -  °F | °C
As of 10:20 AM on Wednesday 26 Nov 2014 (Local Time) from EGHQ Reporting Station
Drizzle Drizzle  
Wind Chill: 45°   Ceiling: 600
Heat Index: 45°   Visibility: 1.8mi
Dew Point: 43°   Wind: 2mph
Humidity: 93%   Direction: NA
Pressure: 29.91"   Gusts: NA
Location:  50.64°N, 4.28°W
Report Text: EGHQ 261020Z VRB02KT 3000 R30/1400 -DZ BR BKN006 OVC012 07/06 Q1013
Loading
Personal Weather Stations






























Interactive Weather Map New forecast layout! Learn more

10-Day Weather Forecast

Advertisements
Track Severe Weather on mobile